Time;durP1;ratioP1;P1;durP2;ratioP2;P2;SDS_P1;SDS_P2;PMS_P1;PMS_P2;Temp;Humidity;BMP_temperature;BMP_pressure;BME280_temperature;BME280_humidity;BME280_pressure;Samples;Min_cycle;Max_cycle;Signal;HPM_P1;HPM_P2
2021/10/24 19:57:17;;;;;;;21.03;19.53;;;8.10;99.90;;;;;;5007596;23;21064;-75
2021/10/24 19:59:44;;;;;;;23.47;21.77;;;8.00;99.90;;;;;;4927120;29;20469;-76
2021/10/24 20:02:11;;;;;;;21.47;19.87;;;8.00;99.90;;;;;;4915366;29;20968;-75
2021/10/24 20:04:37;;;;;;;23.73;21.70;;;8.00;99.90;;;;;;4920256;29;20504;-75
2021/10/24 20:07:04;;;;;;;23.57;21.57;;;7.90;99.90;;;;;;4922605;29;20473;-75
2021/10/24 20:09:31;;;;;;;21.73;19.83;;;7.90;99.90;;;;;;4917505;29;20462;-75
2021/10/24 20:11:58;;;;;;;24.00;22.10;;;7.90;99.90;;;;;;4917658;29;20467;-75
2021/10/24 20:14:26;;;;;;;22.90;21.00;;;7.90;99.90;;;;;;4917432;29;20461;-75
2021/10/24 20:16:53;;;;;;;21.93;20.03;;;7.80;99.90;;;;;;4917420;29;20948;-76
2021/10/24 20:19:19;;;;;;;24.53;22.53;;;7.80;99.90;;;;;;4917184;29;20494;-76
2021/10/24 20:21:46;;;;;;;22.97;21.07;;;7.80;99.90;;;;;;4917242;29;20461;-75
2021/10/24 20:24:13;;;;;;;23.30;21.40;;;7.80;99.90;;;;;;4917549;29;20473;-75
2021/10/24 20:26:40;;;;;;;23.87;21.87;;;7.80;99.90;;;;;;4917293;29;20964;-74
2021/10/24 20:29:06;;;;;;;23.30;21.50;;;7.70;99.90;;;;;;4917423;29;20457;-76
2021/10/24 20:31:34;;;;;;;24.53;22.43;;;7.70;99.90;;;;;;4916937;29;20454;-74
2021/10/24 20:34:01;;;;;;;23.43;21.30;;;7.70;99.90;;;;;;4917323;29;20480;-74
2021/10/24 20:36:28;;;;;;;23.17;21.33;;;7.60;99.90;;;;;;4917420;29;20458;-75
2021/10/24 20:38:54;;;;;;;24.47;22.57;;;7.60;99.90;;;;;;4916984;29;20490;-75
2021/10/24 20:41:21;;;;;;;23.30;21.30;;;7.60;99.90;;;;;;4916849;29;20505;-75
2021/10/24 20:43:50;;;;;;;23.10;21.00;;;7.60;99.90;;;;;;4916838;29;20461;-76
2021/10/24 20:46:19;;;;;;;25.90;22.63;;;7.50;99.90;;;;;;4917033;29;20457;-76
2021/10/24 20:48:47;;;;;;;27.23;24.43;;;7.50;99.90;;;;;;4917012;29;20450;-75
2021/10/24 20:51:14;;;;;;;24.80;22.70;;;7.40;99.90;;;;;;4916875;29;20454;-75
2021/10/24 20:53:42;;;;;;;26.10;23.97;;;7.40;99.90;;;;;;4916814;29;20462;-76
2021/10/24 20:56:09;;;;;;;25.63;23.53;;;7.30;99.90;;;;;;4916635;29;20494;-75
2021/10/24 20:58:36;;;;;;;25.23;23.03;;;7.40;99.90;;;;;;4916740;29;20597;-75
2021/10/24 21:01:03;;;;;;;28.40;25.70;;;7.40;99.90;;;;;;4916478;29;20932;-75
2021/10/24 21:03:29;;;;;;;27.23;24.90;;;7.40;99.90;;;;;;4916600;29;20454;-76
2021/10/24 21:05:57;;;;;;;27.90;25.30;;;7.40;99.90;;;;;;4922859;29;20472;-75
2021/10/24 21:08:24;;;;;;;27.30;24.67;;;7.40;99.90;;;;;;4920138;29;20461;-75
2021/10/24 21:10:51;;;;;;;27.43;24.60;;;7.40;99.90;;;;;;4916337;29;20453;-75
2021/10/24 21:13:17;;;;;;;25.97;23.67;;;7.40;99.90;;;;;;4916397;29;20453;-75
2021/10/24 21:15:44;;;;;;;28.50;26.10;;;7.40;99.90;;;;;;4915836;29;20874;-75
2021/10/24 21:18:12;;;;;;;27.27;24.63;;;7.30;99.90;;;;;;4916528;29;20486;-76
2021/10/24 21:20:38;;;;;;;27.07;24.77;;;7.40;99.90;;;;;;4916290;29;21023;-76
2021/10/24 21:23:06;;;;;;;26.17;23.77;;;7.40;99.90;;;;;;4916199;29;20465;-75
2021/10/24 21:25:33;;;;;;;27.07;24.87;;;7.40;99.90;;;;;;4916067;29;20458;-75
2021/10/24 21:28:00;;;;;;;25.47;23.30;;;7.30;99.90;;;;;;4916131;29;20464;-75
2021/10/24 21:30:27;;;;;;;27.97;25.60;;;7.30;99.90;;;;;;4916251;29;20859;-75
2021/10/24 21:32:53;;;;;;;28.20;25.67;;;7.30;99.90;;;;;;4916175;29;20805;-76
2021/10/24 21:35:20;;;;;;;26.70;24.40;;;7.20;99.90;;;;;;4915554;29;20465;-76
2021/10/24 21:37:47;;;;;;;25.90;23.70;;;7.20;99.90;;;;;;4915480;29;20465;-75
2021/10/24 21:40:15;;;;;;;27.10;24.30;;;7.20;99.90;;;;;;4915799;29;20458;-75
2021/10/24 21:42:42;;;;;;;27.90;25.20;;;7.20;99.90;;;;;;4915876;29;20459;-75
2021/10/24 21:45:09;;;;;;;25.97;23.77;;;7.10;99.90;;;;;;4915551;29;20473;-75
2021/10/24 21:47:36;;;;;;;28.90;26.20;;;7.10;99.90;;;;;;4915591;29;20461;-75
2021/10/24 21:50:04;;;;;;;28.37;25.77;;;7.00;99.90;;;;;;4915737;29;20943;-76
2021/10/24 21:52:31;;;;;;;28.90;26.33;;;7.00;99.90;;;;;;4915856;29;20958;-75
2021/10/24 21:55:04;;;;;;;30.10;27.27;;;6.90;99.90;;;;;;4915424;29;20474;-75
2021/10/24 21:57:32;;;;;;;28.40;26.20;;;6.90;99.90;;;;;;4915241;29;20482;-76
2021/10/24 21:59:59;;;;;;;28.20;25.63;;;6.80;99.90;;;;;;4915371;29;20497;-75
2021/10/24 22:02:25;;;;;;;30.03;27.30;;;6.80;99.90;;;;;;4915153;29;20464;-75
2021/10/24 22:04:54;;;;;;;29.67;27.20;;;6.80;99.90;;;;;;4914787;29;20485;-76
2021/10/24 22:07:21;;;;;;;27.27;24.77;;;6.70;99.90;;;;;;4923942;29;20997;-76
2021/10/24 22:09:47;;;;;;;28.00;25.67;;;6.70;99.90;;;;;;4915961;29;20468;-74
2021/10/24 22:12:14;;;;;;;28.43;25.80;;;6.70;99.90;;;;;;4914909;29;20461;-76
2021/10/24 22:14:42;;;;;;;30.20;27.33;;;6.70;99.90;;;;;;4915137;29;20467;-77
2021/10/24 22:17:09;;;;;;;28.87;26.43;;;6.70;99.90;;;;;;4914943;29;20465;-75
2021/10/24 22:19:39;;;;;;;29.77;26.87;;;6.70;99.90;;;;;;4914698;29;20501;-77
2021/10/24 22:22:06;;;;;;;30.47;27.77;;;6.80;99.90;;;;;;4914841;29;20458;-76
2021/10/24 22:24:33;;;;;;;29.03;26.50;;;6.80;99.90;;;;;;4914340;29;20861;-77
2021/10/24 22:26:59;;;;;;;28.80;26.30;;;6.80;99.90;;;;;;4914271;29;20466;-77
2021/10/24 22:29:26;;;;;;;30.53;27.43;;;6.70;99.90;;;;;;4914476;29;20457;-74
2021/10/24 22:31:56;;;;;;;28.47;25.97;;;6.70;99.90;;;;;;4914614;29;20454;-74
2021/10/24 22:34:23;;;;;;;29.87;27.03;;;6.70;99.90;;;;;;4914759;29;20469;-74
2021/10/24 22:36:50;;;;;;;29.23;26.30;;;6.70;99.90;;;;;;4914452;29;20482;-74
2021/10/24 22:39:17;;;;;;;29.27;26.50;;;6.60;99.90;;;;;;4914542;29;20497;-77
2021/10/24 22:41:44;;;;;;;31.77;28.80;;;6.60;99.90;;;;;;4915459;29;20525;-77
2021/10/24 22:44:11;;;;;;;30.37;27.97;;;6.50;99.90;;;;;;4914659;29;20887;-77
2021/10/24 22:46:37;;;;;;;29.73;26.97;;;6.50;99.90;;;;;;4914135;29;20460;-75
2021/10/24 22:49:05;;;;;;;31.77;28.87;;;6.40;99.90;;;;;;4914266;29;20451;-77
2021/10/24 22:51:32;;;;;;;31.30;28.10;;;6.40;99.90;;;;;;4914381;29;20500;-77
2021/10/24 22:53:59;;;;;;;29.87;27.20;;;6.40;99.90;;;;;;4914492;29;20482;-77
2021/10/24 22:56:26;;;;;;;28.03;25.13;;;6.30;99.90;;;;;;4914338;29;20482;-78
2021/10/24 22:58:53;;;;;;;30.13;27.23;;;6.30;99.90;;;;;;4914074;29;20543;-77
2021/10/24 23:01:21;;;;;;;29.03;26.43;;;6.30;99.90;;;;;;4914103;29;20955;-78
2021/10/24 23:03:47;;;;;;;31.20;28.30;;;6.20;99.90;;;;;;4914218;29;20468;-77
2021/10/24 23:06:16;;;;;;;30.80;27.90;;;6.20;99.90;;;;;;4914324;29;20458;-77
2021/10/24 23:08:42;;;;;;;31.47;28.40;;;6.20;99.90;;;;;;4914209;29;20464;-76
2021/10/24 23:11:09;;;;;;;33.23;30.33;;;6.10;99.90;;;;;;4914009;29;20466;-76
2021/10/24 23:13:36;;;;;;;32.50;29.20;;;6.10;99.90;;;;;;4913978;29;20457;-74
2021/10/24 23:16:04;;;;;;;31.03;28.13;;;6.10;99.90;;;;;;4914834;29;20458;-77
2021/10/24 23:18:31;;;;;;;31.13;27.83;;;6.10;99.90;;;;;;4914809;29;20472;-74
2021/10/24 23:20:58;;;;;;;31.93;28.83;;;6.10;99.90;;;;;;4914821;29;20508;-75
2021/10/24 23:23:26;;;;;;;33.00;30.03;;;6.00;99.90;;;;;;4914218;29;20463;-75
2021/10/24 23:25:53;;;;;;;29.93;27.33;;;5.90;99.90;;;;;;4913855;29;20473;-76
2021/10/24 23:28:20;;;;;;;32.77;29.70;;;5.90;99.90;;;;;;4914100;29;20454;-76
2021/10/24 23:30:46;;;;;;;33.23;30.20;;;5.80;99.90;;;;;;4913760;29;20461;-77
2021/10/24 23:33:14;;;;;;;34.03;30.90;;;5.80;99.90;;;;;;4914151;29;20516;-77
2021/10/24 23:35:41;;;;;;;32.57;29.53;;;5.80;99.90;;;;;;4913980;29;20457;-74
2021/10/24 23:38:08;;;;;;;29.90;27.10;;;5.70;99.90;;;;;;4913707;29;20951;-76
2021/10/24 23:40:36;;;;;;;30.93;28.17;;;5.70;99.90;;;;;;4913049;29;20491;-77
2021/10/24 23:43:02;;;;;;;31.40;28.40;;;5.60;99.90;;;;;;4913845;29;20521;-75
2021/10/24 23:45:29;;;;;;;31.03;28.00;;;5.60;99.90;;;;;;4913729;29;20460;-75
2021/10/24 23:47:56;;;;;;;29.50;27.00;;;5.60;99.90;;;;;;4913940;29;20535;-75
2021/10/24 23:50:22;;;;;;;31.90;28.73;;;5.50;99.90;;;;;;4913340;29;20455;-75
2021/10/24 23:52:49;;;;;;;32.20;29.37;;;5.50;99.90;;;;;;4913487;29;20466;-75
2021/10/24 23:55:16;;;;;;;32.53;29.73;;;5.50;99.90;;;;;;4913070;29;21028;-74
2021/10/24 23:57:44;;;;;;;35.90;30.87;;;5.50;99.90;;;;;;4913821;29;20462;-74
